createdAt,value
2022-11-29T00:03:07.772Z,5.47
2022-11-29T00:08:10.840Z,5.48
2022-11-29T00:13:13.756Z,5.53
2022-11-29T00:18:17.866Z,5.54
2022-11-29T00:23:20.636Z,5.53
2022-11-29T00:28:23.420Z,5.53
2022-11-29T00:33:27.805Z,5.54
2022-11-29T00:38:30.573Z,5.55
2022-11-29T00:43:33.468Z,5.57
2022-11-29T00:48:38.100Z,5.54
2022-11-29T00:53:41.367Z,5.53
2022-11-29T00:58:44.332Z,5.57
2022-11-29T01:03:48.435Z,5.62
2022-11-29T01:08:51.211Z,5.60
2022-11-29T01:13:57.226Z,5.58
2022-11-29T01:19:01.590Z,5.61
2022-11-29T01:24:04.639Z,5.61
2022-11-29T01:29:07.790Z,5.61
2022-11-29T01:34:12.574Z,5.58
2022-11-29T01:39:15.409Z,5.59
2022-11-29T01:44:55.520Z,5.60
2022-11-29T01:50:00.391Z,5.60
2022-11-29T01:55:06.756Z,5.61
2022-11-29T02:00:13.169Z,5.48
2022-11-29T02:05:19.616Z,5.49
2022-11-29T02:10:30.847Z,5.58
2022-11-29T02:15:42.530Z,5.63
2022-11-29T02:21:04.455Z,5.65
2022-11-29T02:26:26.818Z,5.71
2022-11-29T02:31:50.348Z,5.73
2022-11-29T02:37:11.678Z,5.73
2022-11-29T02:42:55.599Z,5.79
2022-11-29T02:48:15.482Z,5.82
2022-11-29T02:53:27.709Z,5.83
2022-11-29T02:58:37.841Z,5.83
2022-11-29T03:03:47.540Z,5.82
2022-11-29T03:09:00.644Z,5.83
2022-11-29T03:14:15.535Z,5.80
2022-11-29T03:19:36.036Z,5.75
2022-11-29T03:24:46.244Z,5.78
2022-11-29T03:29:55.175Z,5.73
2022-11-29T03:35:07.971Z,5.73
2022-11-29T03:40:13.809Z,5.77
2022-11-29T03:45:24.688Z,5.78
2022-11-29T03:50:34.688Z,5.79
2022-11-29T03:55:53.547Z,5.80
2022-11-29T04:01:31.796Z,5.77
2022-11-29T04:06:48.524Z,5.77
2022-11-29T04:12:22.059Z,5.71
2022-11-29T04:17:43.524Z,5.69
2022-11-29T04:23:26.047Z,5.72
2022-11-29T04:29:09.648Z,5.71
2022-11-29T04:34:47.409Z,5.69
2022-11-29T04:40:02.906Z,5.70
2022-11-29T04:45:54.689Z,5.75
2022-11-29T04:51:09.996Z,5.78
2022-11-29T04:56:21.451Z,5.78
2022-11-29T05:01:34.009Z,5.76
2022-11-29T05:06:45.955Z,5.76
2022-11-29T05:11:58.838Z,5.76
2022-11-29T05:17:22.339Z,5.65
2022-11-29T05:22:32.645Z,5.57
2022-11-29T05:27:47.007Z,5.63
2022-11-29T05:32:58.550Z,5.58
2022-11-29T05:38:09.465Z,5.60
2022-11-29T05:43:26.167Z,5.52
2022-11-29T05:48:44.948Z,5.57
2022-11-29T05:53:58.471Z,5.55
2022-11-29T05:59:05.132Z,5.58
2022-11-29T06:04:17.133Z,5.58
2022-11-29T06:09:27.235Z,5.57
2022-11-29T06:14:59.092Z,5.53
2022-11-29T06:20:26.332Z,5.61
2022-11-29T06:25:47.068Z,5.57
2022-11-29T06:31:00.613Z,5.56
2022-11-29T06:36:16.884Z,5.57
2022-11-29T06:41:21.839Z,5.63
2022-11-29T06:46:35.350Z,5.67
2022-11-29T06:51:49.308Z,5.70
2022-11-29T06:57:01.280Z,5.67
2022-11-29T07:02:22.357Z,5.66
2022-11-29T07:07:27.274Z,5.69
2022-11-29T07:12:30.697Z,5.72
2022-11-29T07:17:44.396Z,5.79
2022-11-29T07:22:59.576Z,5.82
2022-11-29T07:28:12.361Z,5.84
2022-11-29T07:33:19.917Z,5.93
2022-11-29T07:38:31.590Z,6.08
2022-11-29T07:43:46.597Z,6.20
2022-11-29T07:48:49.344Z,6.31
2022-11-29T07:53:53.904Z,6.37
2022-11-29T07:58:56.696Z,6.54
2022-11-29T08:03:59.621Z,6.51
2022-11-29T08:09:05.395Z,6.48
2022-11-29T08:14:08.126Z,6.47
2022-11-29T08:19:10.872Z,6.49
2022-11-29T08:24:15.035Z,6.45
2022-11-29T08:29:18.229Z,6.37
2022-11-29T08:34:21.438Z,6.37
2022-11-29T08:39:25.531Z,6.35
2022-11-29T08:44:28.427Z,6.31
2022-11-29T08:49:31.211Z,6.40
2022-11-29T08:54:35.727Z,6.47
2022-11-29T08:59:38.474Z,6.53
2022-11-29T09:04:41.246Z,6.56
2022-11-29T09:09:45.381Z,6.57
2022-11-29T09:14:48.164Z,6.57
2022-11-29T09:19:50.982Z,6.60
2022-11-29T09:24:55.071Z,6.72
2022-11-29T09:29:57.864Z,6.81
2022-11-29T09:35:00.618Z,6.86
2022-11-29T09:40:05.773Z,6.90
2022-11-29T09:45:11.822Z,6.92
2022-11-29T09:50:25.477Z,7.00
2022-11-29T09:55:48.382Z,6.98
2022-11-29T10:00:53.127Z,7.00
2022-11-29T10:05:59.629Z,7.01
2022-11-29T10:11:14.763Z,6.92
2022-11-29T10:16:25.954Z,6.80
2022-11-29T10:21:35.835Z,7.09
2022-11-29T10:26:40.103Z,7.19
2022-11-29T10:31:49.181Z,7.18
2022-11-29T10:36:54.715Z,7.33
2022-11-29T10:42:03.762Z,7.44
2022-11-29T10:47:10.903Z,7.52
2022-11-29T10:52:20.519Z,7.50
2022-11-29T10:57:25.229Z,7.47
2022-11-29T11:02:28.632Z,7.52
2022-11-29T11:07:35.099Z,7.41
2022-11-29T11:12:39.305Z,7.40
2022-11-29T11:17:56.531Z,7.41
2022-11-29T11:23:02.112Z,7.54
2022-11-29T11:28:20.403Z,7.48
2022-11-29T11:33:27.012Z,7.59
2022-11-29T11:38:30.496Z,7.64
2022-11-29T11:43:35.711Z,7.69
2022-11-29T11:48:41.891Z,7.81
2022-11-29T11:53:52.126Z,7.82
2022-11-29T11:58:58.826Z,7.81
2022-11-29T12:04:06.771Z,7.84
2022-11-29T12:09:19.311Z,7.84
2022-11-29T12:14:34.111Z,7.85
2022-11-29T12:19:44.205Z,7.79
2022-11-29T12:24:56.080Z,7.76
2022-11-29T12:30:00.254Z,7.77
2022-11-29T12:35:35.025Z,7.82
2022-11-29T12:40:47.400Z,7.94
2022-11-29T12:45:58.526Z,7.97
2022-11-29T12:51:09.433Z,7.93
2022-11-29T12:56:16.942Z,7.92
2022-11-29T13:01:30.979Z,7.83
2022-11-29T13:06:40.427Z,7.76
2022-11-29T13:11:53.897Z,7.75
2022-11-29T13:17:02.151Z,7.76
2022-11-29T13:22:11.815Z,7.76
2022-11-29T13:27:18.776Z,7.54
2022-11-29T13:32:35.131Z,7.48
2022-11-29T13:37:48.366Z,7.53
2022-11-29T13:43:02.200Z,7.42
2022-11-29T13:48:27.850Z,7.28
2022-11-29T13:53:48.614Z,7.43
2022-11-29T13:58:54.713Z,7.01
2022-11-29T14:04:07.919Z,7.25
2022-11-29T14:09:26.881Z,7.10
2022-11-29T14:14:35.264Z,7.28
2022-11-29T14:19:39.435Z,7.27
2022-11-29T14:24:43.186Z,7.42
2022-11-29T14:29:54.555Z,7.44
2022-11-29T14:35:04.709Z,7.48
2022-11-29T14:40:21.858Z,7.47
2022-11-29T14:45:27.872Z,7.48
2022-11-29T14:50:37.504Z,7.48
2022-11-29T14:55:40.395Z,7.50
2022-11-29T15:01:09.859Z,7.52
2022-11-29T15:06:24.037Z,7.50
2022-11-29T15:11:43.078Z,7.48
2022-11-29T15:16:59.412Z,7.25
2022-11-29T15:22:11.697Z,7.31
2022-11-29T15:27:14.527Z,7.38
2022-11-29T15:32:23.391Z,7.37
2022-11-29T15:37:44.484Z,7.37
2022-11-29T15:42:50.748Z,7.35
2022-11-29T15:47:54.044Z,7.36
2022-11-29T15:53:02.058Z,7.31
2022-11-29T15:58:08.856Z,7.22
2022-11-29T16:03:20.930Z,7.15
2022-11-29T16:08:35.408Z,7.25
2022-11-29T16:13:40.381Z,7.18
2022-11-29T16:18:44.680Z,7.15
2022-11-29T16:23:49.196Z,6.92
2022-11-29T16:28:54.391Z,7.01
2022-11-29T16:33:57.746Z,7.04
2022-11-29T16:39:06.551Z,7.01
2022-11-29T16:44:45.446Z,6.83
2022-11-29T16:50:10.644Z,7.04
2022-11-29T16:55:13.772Z,6.72
2022-11-29T17:00:26.047Z,6.81
2022-11-29T17:05:30.359Z,6.88
2022-11-29T17:10:33.271Z,7.00
2022-11-29T17:15:36.096Z,7.08
2022-11-29T17:20:40.297Z,7.12
2022-11-29T17:25:43.132Z,7.10
2022-11-29T17:30:45.987Z,6.94
2022-11-29T17:35:50.138Z,6.90
2022-11-29T17:40:52.961Z,6.91
2022-11-29T17:45:55.769Z,7.05
2022-11-29T17:51:01.864Z,6.97
2022-11-29T17:56:06.204Z,6.85
2022-11-29T18:01:11.172Z,6.87
2022-11-29T18:06:17.428Z,6.88
2022-11-29T18:11:21.965Z,6.99
2022-11-29T18:16:26.623Z,7.01
2022-11-29T18:21:31.519Z,7.01
2022-11-29T18:26:36.200Z,7.01
2022-11-29T18:31:41.023Z,7.03
2022-11-29T18:36:47.358Z,7.03
2022-11-29T18:41:51.543Z,7.03
2022-11-29T18:46:54.374Z,7.03
2022-11-29T18:51:58.475Z,7.06
2022-11-29T18:57:01.332Z,7.08
2022-11-29T19:02:04.118Z,7.06
2022-11-29T19:07:08.271Z,7.00
2022-11-29T19:12:11.044Z,7.04
2022-11-29T19:17:13.805Z,7.04
2022-11-29T19:22:18.010Z,7.03
2022-11-29T19:27:21.235Z,7.08
2022-11-29T19:32:24.008Z,6.90
2022-11-29T19:37:28.206Z,6.90
2022-11-29T19:42:31.089Z,6.92
2022-11-29T19:47:33.894Z,6.95
2022-11-29T19:52:38.184Z,6.87
2022-11-29T19:57:40.993Z,6.91
2022-11-29T20:02:43.862Z,6.81
2022-11-29T20:07:48.125Z,6.73
2022-11-29T20:12:51.155Z,6.83
2022-11-29T20:17:54.349Z,6.89
2022-11-29T20:22:58.699Z,6.92
2022-11-29T20:28:01.480Z,7.02
2022-11-29T20:33:05.100Z,7.01
2022-11-29T20:38:19.964Z,7.02
2022-11-29T20:43:38.888Z,6.93
2022-11-29T20:48:42.136Z,7.09
2022-11-29T20:53:48.428Z,7.01
2022-11-29T20:58:51.388Z,6.93
2022-11-29T21:03:54.256Z,6.99
2022-11-29T21:08:58.474Z,7.10
2022-11-29T21:14:03.969Z,7.12
2022-11-29T21:19:07.279Z,7.13
2022-11-29T21:24:27.833Z,7.18
2022-11-29T21:29:31.225Z,7.22
2022-11-29T21:34:34.807Z,7.19
2022-11-29T21:39:39.236Z,7.11
2022-11-29T21:44:42.008Z,7.12
2022-11-29T21:49:46.282Z,7.09
2022-11-29T21:54:50.684Z,7.07
2022-11-29T21:59:53.747Z,7.10
2022-11-29T22:04:56.546Z,7.14
2022-11-29T22:10:08.557Z,7.07
2022-11-29T22:15:19.055Z,7.05
2022-11-29T22:20:24.390Z,7.00
2022-11-29T22:25:28.535Z,6.98
2022-11-29T22:30:31.276Z,6.87
2022-11-29T22:35:34.024Z,7.00
2022-11-29T22:40:38.304Z,6.65
2022-11-29T22:45:41.075Z,6.72
2022-11-29T22:50:43.841Z,6.45
2022-11-29T22:55:47.924Z,6.60
2022-11-29T23:00:50.728Z,6.38
2022-11-29T23:05:53.554Z,6.34
2022-11-29T23:10:58.236Z,6.48
2022-11-29T23:16:01.595Z,6.38
2022-11-29T23:21:07.319Z,6.42
2022-11-29T23:26:18.427Z,6.48
2022-11-29T23:31:22.465Z,6.42
2022-11-29T23:36:25.242Z,6.59
2022-11-29T23:41:29.325Z,6.61
2022-11-29T23:46:32.160Z,6.66
2022-11-29T23:51:34.947Z,6.66
2022-11-29T23:56:39.083Z,6.49
